sensor_id;sensor_type;location;lat;lon;timestamp;P1;durP1;ratioP1;P2;durP2;ratioP2
18544;SDS011;9402;51.460;7.276;2023-05-10T00:00:53;4.70;;;3.87;;
18544;SDS011;9402;51.460;7.276;2023-05-10T00:02:56;4.50;;;3.57;;
18544;SDS011;9402;51.460;7.276;2023-05-10T00:04:57;4.10;;;3.10;;
18544;SDS011;9402;51.460;7.276;2023-05-10T00:06:59;3.50;;;3.20;;
18544;SDS011;9402;51.460;7.276;2023-05-10T00:09:00;4.53;;;4.10;;
18544;SDS011;9402;51.460;7.276;2023-05-10T00:11:03;4.33;;;3.93;;
18544;SDS011;9402;51.460;7.276;2023-05-10T00:13:04;6.30;;;4.03;;
18544;SDS011;9402;51.460;7.276;2023-05-10T00:15:06;4.23;;;3.83;;
18544;SDS011;9402;51.460;7.276;2023-05-10T00:17:09;4.60;;;4.17;;
18544;SDS011;9402;51.460;7.276;2023-05-10T00:19:12;6.90;;;4.53;;
18544;SDS011;9402;51.460;7.276;2023-05-10T00:21:14;10.50;;;4.10;;
18544;SDS011;9402;51.460;7.276;2023-05-10T00:23:15;5.60;;;4.93;;
18544;SDS011;9402;51.460;7.276;2023-05-10T00:25:17;4.80;;;4.20;;
18544;SDS011;9402;51.460;7.276;2023-05-10T00:27:21;4.87;;;4.37;;
18544;SDS011;9402;51.460;7.276;2023-05-10T00:29:23;5.80;;;4.67;;
18544;SDS011;9402;51.460;7.276;2023-05-10T00:31:24;5.50;;;3.93;;
18544;SDS011;9402;51.460;7.276;2023-05-10T00:33:26;5.23;;;4.83;;
18544;SDS011;9402;51.460;7.276;2023-05-10T00:35:29;6.07;;;5.07;;
18544;SDS011;9402;51.460;7.276;2023-05-10T00:37:30;6.90;;;5.90;;
18544;SDS011;9402;51.460;7.276;2023-05-10T00:39:32;6.03;;;5.43;;
18544;SDS011;9402;51.460;7.276;2023-05-10T00:41:33;6.13;;;5.53;;
18544;SDS011;9402;51.460;7.276;2023-05-10T00:43:35;6.83;;;5.00;;
18544;SDS011;9402;51.460;7.276;2023-05-10T00:45:36;7.97;;;6.23;;
18544;SDS011;9402;51.460;7.276;2023-05-10T00:47:38;8.00;;;5.50;;
18544;SDS011;9402;51.460;7.276;2023-05-10T00:49:40;7.30;;;5.87;;
18544;SDS011;9402;51.460;7.276;2023-05-10T00:51:43;9.53;;;6.80;;
18544;SDS011;9402;51.460;7.276;2023-05-10T00:53:45;9.77;;;6.50;;
18544;SDS011;9402;51.460;7.276;2023-05-10T00:55:47;7.60;;;6.40;;
18544;SDS011;9402;51.460;7.276;2023-05-10T00:57:49;8.90;;;6.90;;
18544;SDS011;9402;51.460;7.276;2023-05-10T00:59:50;7.37;;;6.60;;
18544;SDS011;9402;51.460;7.276;2023-05-10T01:01:52;8.30;;;6.80;;
18544;SDS011;9402;51.460;7.276;2023-05-10T01:03:54;8.30;;;7.07;;
18544;SDS011;9402;51.460;7.276;2023-05-10T01:05:57;10.20;;;8.13;;
18544;SDS011;9402;51.460;7.276;2023-05-10T01:08:00;10.90;;;7.43;;
18544;SDS011;9402;51.460;7.276;2023-05-10T01:10:02;10.30;;;8.03;;
18544;SDS011;9402;51.460;7.276;2023-05-10T01:12:04;10.03;;;7.67;;
18544;SDS011;9402;51.460;7.276;2023-05-10T01:14:07;13.27;;;9.30;;
18544;SDS011;9402;51.460;7.276;2023-05-10T01:16:09;12.40;;;8.57;;
18544;SDS011;9402;51.460;7.276;2023-05-10T01:18:10;12.17;;;8.77;;
18544;SDS011;9402;51.460;7.276;2023-05-10T01:20:12;15.43;;;9.67;;
18544;SDS011;9402;51.460;7.276;2023-05-10T01:22:19;9.93;;;8.70;;
18544;SDS011;9402;51.460;7.276;2023-05-10T01:30:16;17.17;;;10.60;;
18544;SDS011;9402;51.460;7.276;2023-05-10T01:32:33;12.70;;;9.37;;
18544;SDS011;9402;51.460;7.276;2023-05-10T01:34:39;13.80;;;9.67;;
18544;SDS011;9402;51.460;7.276;2023-05-10T01:36:45;11.83;;;8.30;;
18544;SDS011;9402;51.460;7.276;2023-05-10T01:38:50;10.90;;;9.23;;
18544;SDS011;9402;51.460;7.276;2023-05-10T01:40:59;13.00;;;9.27;;
18544;SDS011;9402;51.460;7.276;2023-05-10T01:43:07;10.50;;;8.90;;
18544;SDS011;9402;51.460;7.276;2023-05-10T01:45:14;10.77;;;8.53;;
18544;SDS011;9402;51.460;7.276;2023-05-10T01:47:23;10.63;;;7.83;;
18544;SDS011;9402;51.460;7.276;2023-05-10T01:49:30;12.97;;;8.37;;
18544;SDS011;9402;51.460;7.276;2023-05-10T01:51:36;10.33;;;8.47;;
18544;SDS011;9402;51.460;7.276;2023-05-10T01:53:40;12.30;;;10.17;;
18544;SDS011;9402;51.460;7.276;2023-05-10T01:55:44;12.50;;;6.90;;
18544;SDS011;9402;51.460;7.276;2023-05-10T01:57:48;8.90;;;7.00;;
18544;SDS011;9402;51.460;7.276;2023-05-10T01:59:52;9.60;;;7.23;;
18544;SDS011;9402;51.460;7.276;2023-05-10T02:01:54;9.90;;;7.20;;
18544;SDS011;9402;51.460;7.276;2023-05-10T02:03:58;7.93;;;6.80;;
18544;SDS011;9402;51.460;7.276;2023-05-10T02:06:02;12.50;;;8.80;;
18544;SDS011;9402;51.460;7.276;2023-05-10T02:08:05;11.60;;;8.00;;
18544;SDS011;9402;51.460;7.276;2023-05-10T02:10:09;13.60;;;8.67;;
18544;SDS011;9402;51.460;7.276;2023-05-10T02:12:11;9.50;;;6.50;;
18544;SDS011;9402;51.460;7.276;2023-05-10T02:14:14;10.67;;;8.13;;
18544;SDS011;9402;51.460;7.276;2023-05-10T02:16:16;10.70;;;7.43;;
18544;SDS011;9402;51.460;7.276;2023-05-10T02:18:19;12.10;;;9.13;;
18544;SDS011;9402;51.460;7.276;2023-05-10T02:20:22;17.00;;;9.73;;
18544;SDS011;9402;51.460;7.276;2023-05-10T02:22:25;9.33;;;7.43;;
18544;SDS011;9402;51.460;7.276;2023-05-10T02:24:27;13.07;;;8.53;;
18544;SDS011;9402;51.460;7.276;2023-05-10T02:26:28;10.20;;;8.50;;
18544;SDS011;9402;51.460;7.276;2023-05-10T02:28:30;12.70;;;9.23;;
18544;SDS011;9402;51.460;7.276;2023-05-10T02:30:32;12.87;;;9.37;;
18544;SDS011;9402;51.460;7.276;2023-05-10T02:32:35;13.83;;;9.10;;
18544;SDS011;9402;51.460;7.276;2023-05-10T02:34:36;14.20;;;9.80;;
18544;SDS011;9402;51.460;7.276;2023-05-10T02:36:38;13.73;;;9.50;;
18544;SDS011;9402;51.460;7.276;2023-05-10T02:38:41;13.90;;;9.40;;
18544;SDS011;9402;51.460;7.276;2023-05-10T02:40:44;18.57;;;10.50;;
18544;SDS011;9402;51.460;7.276;2023-05-10T02:42:47;17.03;;;10.43;;
18544;SDS011;9402;51.460;7.276;2023-05-10T02:44:50;13.60;;;9.17;;
18544;SDS011;9402;51.460;7.276;2023-05-10T02:46:53;15.20;;;10.07;;
18544;SDS011;9402;51.460;7.276;2023-05-10T02:48:55;13.13;;;9.40;;
18544;SDS011;9402;51.460;7.276;2023-05-10T02:50:59;17.07;;;10.57;;
18544;SDS011;9402;51.460;7.276;2023-05-10T02:53:03;12.90;;;8.83;;
18544;SDS011;9402;51.460;7.276;2023-05-10T02:55:10;16.93;;;10.40;;
18544;SDS011;9402;51.460;7.276;2023-05-10T02:57:14;12.90;;;9.50;;
18544;SDS011;9402;51.460;7.276;2023-05-10T02:59:18;13.47;;;9.73;;
18544;SDS011;9402;51.460;7.276;2023-05-10T03:01:19;15.53;;;9.80;;
18544;SDS011;9402;51.460;7.276;2023-05-10T03:03:21;15.13;;;9.77;;
18544;SDS011;9402;51.460;7.276;2023-05-10T03:05:22;18.30;;;11.13;;
18544;SDS011;9402;51.460;7.276;2023-05-10T03:07:24;16.17;;;10.53;;
18544;SDS011;9402;51.460;7.276;2023-05-10T03:09:26;15.23;;;10.30;;
18544;SDS011;9402;51.460;7.276;2023-05-10T03:11:31;17.93;;;11.87;;
18544;SDS011;9402;51.460;7.276;2023-05-10T03:13:39;18.50;;;11.90;;
18544;SDS011;9402;51.460;7.276;2023-05-10T03:15:47;20.00;;;12.57;;
18544;SDS011;9402;51.460;7.276;2023-05-10T03:17:55;24.47;;;12.10;;
18544;SDS011;9402;51.460;7.276;2023-05-10T03:20:03;17.03;;;11.27;;
18544;SDS011;9402;51.460;7.276;2023-05-10T03:22:08;20.10;;;11.30;;
18544;SDS011;9402;51.460;7.276;2023-05-10T03:24:11;19.93;;;12.00;;
18544;SDS011;9402;51.460;7.276;2023-05-10T03:26:16;15.13;;;9.97;;
18544;SDS011;9402;51.460;7.276;2023-05-10T03:28:21;20.13;;;11.07;;
18544;SDS011;9402;51.460;7.276;2023-05-10T03:30:25;19.50;;;11.60;;
18544;SDS011;9402;51.460;7.276;2023-05-10T03:32:27;18.63;;;12.50;;
18544;SDS011;9402;51.460;7.276;2023-05-10T03:34:30;20.33;;;10.13;;
18544;SDS011;9402;51.460;7.276;2023-05-10T03:36:32;17.20;;;10.70;;
18544;SDS011;9402;51.460;7.276;2023-05-10T03:38:34;15.50;;;9.50;;
18544;SDS011;9402;51.460;7.276;2023-05-10T03:40:35;15.10;;;9.57;;
18544;SDS011;9402;51.460;7.276;2023-05-10T03:42:37;18.10;;;9.30;;
18544;SDS011;9402;51.460;7.276;2023-05-10T03:44:40;20.47;;;10.30;;
18544;SDS011;9402;51.460;7.276;2023-05-10T03:46:41;17.60;;;10.20;;
18544;SDS011;9402;51.460;7.276;2023-05-10T03:48:43;18.27;;;10.03;;
18544;SDS011;9402;51.460;7.276;2023-05-10T03:50:44;16.47;;;10.10;;
18544;SDS011;9402;51.460;7.276;2023-05-10T03:52:46;14.73;;;9.60;;
18544;SDS011;9402;51.460;7.276;2023-05-10T03:54:48;20.70;;;11.60;;
18544;SDS011;9402;51.460;7.276;2023-05-10T03:56:49;19.33;;;9.50;;
18544;SDS011;9402;51.460;7.276;2023-05-10T03:58:51;12.80;;;8.60;;
18544;SDS011;9402;51.460;7.276;2023-05-10T04:00:54;17.67;;;10.20;;
18544;SDS011;9402;51.460;7.276;2023-05-10T04:02:56;20.60;;;9.73;;
18544;SDS011;9402;51.460;7.276;2023-05-10T04:04:57;22.43;;;10.60;;
18544;SDS011;9402;51.460;7.276;2023-05-10T04:06:59;17.50;;;10.47;;
18544;SDS011;9402;51.460;7.276;2023-05-10T04:09:00;18.57;;;11.53;;
18544;SDS011;9402;51.460;7.276;2023-05-10T04:11:04;20.73;;;11.40;;
18544;SDS011;9402;51.460;7.276;2023-05-10T04:13:07;26.83;;;12.90;;
18544;SDS011;9402;51.460;7.276;2023-05-10T04:15:09;23.53;;;15.53;;
18544;SDS011;9402;51.460;7.276;2023-05-10T04:17:12;39.80;;;16.47;;
18544;SDS011;9402;51.460;7.276;2023-05-10T04:19:13;33.80;;;17.37;;
18544;SDS011;9402;51.460;7.276;2023-05-10T04:21:15;33.50;;;17.00;;
18544;SDS011;9402;51.460;7.276;2023-05-10T04:23:16;26.37;;;16.87;;
18544;SDS011;9402;51.460;7.276;2023-05-10T04:25:18;31.17;;;19.33;;
18544;SDS011;9402;51.460;7.276;2023-05-10T04:27:20;28.07;;;18.07;;
18544;SDS011;9402;51.460;7.276;2023-05-10T04:29:21;31.73;;;18.73;;
18544;SDS011;9402;51.460;7.276;2023-05-10T04:31:23;32.50;;;16.73;;
18544;SDS011;9402;51.460;7.276;2023-05-10T04:33:25;32.87;;;18.00;;
18544;SDS011;9402;51.460;7.276;2023-05-10T04:35:27;29.27;;;17.10;;
18544;SDS011;9402;51.460;7.276;2023-05-10T04:37:29;31.43;;;17.70;;
18544;SDS011;9402;51.460;7.276;2023-05-10T04:39:30;33.57;;;19.50;;
18544;SDS011;9402;51.460;7.276;2023-05-10T04:41:32;31.77;;;18.23;;
18544;SDS011;9402;51.460;7.276;2023-05-10T04:43:33;37.40;;;20.47;;
18544;SDS011;9402;51.460;7.276;2023-05-10T04:45:35;42.60;;;21.47;;
18544;SDS011;9402;51.460;7.276;2023-05-10T04:47:37;41.17;;;21.33;;
18544;SDS011;9402;51.460;7.276;2023-05-10T04:49:39;40.83;;;24.20;;
18544;SDS011;9402;51.460;7.276;2023-05-10T04:51:41;39.70;;;21.93;;
18544;SDS011;9402;51.460;7.276;2023-05-10T04:53:42;39.57;;;22.67;;
18544;SDS011;9402;51.460;7.276;2023-05-10T04:55:44;41.80;;;23.27;;
18544;SDS011;9402;51.460;7.276;2023-05-10T04:57:46;40.47;;;20.73;;
18544;SDS011;9402;51.460;7.276;2023-05-10T04:59:48;47.43;;;24.20;;
18544;SDS011;9402;51.460;7.276;2023-05-10T05:01:49;42.00;;;23.30;;
18544;SDS011;9402;51.460;7.276;2023-05-10T05:03:51;39.93;;;21.70;;
18544;SDS011;9402;51.460;7.276;2023-05-10T05:05:54;41.43;;;22.20;;
18544;SDS011;9402;51.460;7.276;2023-05-10T05:07:56;39.80;;;22.13;;
18544;SDS011;9402;51.460;7.276;2023-05-10T05:09:57;43.27;;;22.87;;
18544;SDS011;9402;51.460;7.276;2023-05-10T05:11:59;44.20;;;23.40;;
18544;SDS011;9402;51.460;7.276;2023-05-10T05:14:00;42.93;;;23.60;;
18544;SDS011;9402;51.460;7.276;2023-05-10T05:16:02;47.40;;;23.50;;
18544;SDS011;9402;51.460;7.276;2023-05-10T05:18:04;52.43;;;28.00;;
18544;SDS011;9402;51.460;7.276;2023-05-10T05:20:06;56.83;;;27.30;;
18544;SDS011;9402;51.460;7.276;2023-05-10T05:22:10;44.70;;;26.00;;
18544;SDS011;9402;51.460;7.276;2023-05-10T05:24:12;47.20;;;25.30;;
18544;SDS011;9402;51.460;7.276;2023-05-10T05:26:13;51.73;;;28.53;;
18544;SDS011;9402;51.460;7.276;2023-05-10T05:28:15;52.80;;;29.57;;
18544;SDS011;9402;51.460;7.276;2023-05-10T05:30:17;49.80;;;27.47;;
18544;SDS011;9402;51.460;7.276;2023-05-10T05:32:18;56.93;;;28.97;;
18544;SDS011;9402;51.460;7.276;2023-05-10T05:34:20;56.20;;;28.80;;
18544;SDS011;9402;51.460;7.276;2023-05-10T05:36:22;48.60;;;27.47;;
18544;SDS011;9402;51.460;7.276;2023-05-10T05:38:25;56.23;;;28.80;;
18544;SDS011;9402;51.460;7.276;2023-05-10T05:40:26;49.43;;;28.70;;
18544;SDS011;9402;51.460;7.276;2023-05-10T05:42:28;58.77;;;30.47;;
18544;SDS011;9402;51.460;7.276;2023-05-10T05:44:30;52.60;;;28.87;;
18544;SDS011;9402;51.460;7.276;2023-05-10T05:46:31;52.20;;;29.13;;
18544;SDS011;9402;51.460;7.276;2023-05-10T05:48:33;58.43;;;28.87;;
18544;SDS011;9402;51.460;7.276;2023-05-10T05:50:34;66.00;;;31.40;;
18544;SDS011;9402;51.460;7.276;2023-05-10T05:52:36;65.67;;;31.20;;
18544;SDS011;9402;51.460;7.276;2023-05-10T05:54:39;56.83;;;31.33;;
18544;SDS011;9402;51.460;7.276;2023-05-10T05:56:40;62.60;;;33.13;;
18544;SDS011;9402;51.460;7.276;2023-05-10T05:58:42;64.83;;;34.70;;
18544;SDS011;9402;51.460;7.276;2023-05-10T06:00:44;64.23;;;30.80;;
18544;SDS011;9402;51.460;7.276;2023-05-10T06:02:46;65.90;;;31.23;;
18544;SDS011;9402;51.460;7.276;2023-05-10T06:04:48;69.87;;;32.97;;
18544;SDS011;9402;51.460;7.276;2023-05-10T06:06:49;59.77;;;31.30;;
18544;SDS011;9402;51.460;7.276;2023-05-10T06:08:51;66.27;;;34.47;;
18544;SDS011;9402;51.460;7.276;2023-05-10T06:10:54;59.87;;;31.20;;
18544;SDS011;9402;51.460;7.276;2023-05-10T06:12:56;60.40;;;31.70;;
18544;SDS011;9402;51.460;7.276;2023-05-10T06:14:57;62.03;;;31.37;;
18544;SDS011;9402;51.460;7.276;2023-05-10T06:16:59;63.77;;;33.30;;
18544;SDS011;9402;51.460;7.276;2023-05-10T06:19:00;58.47;;;31.60;;
18544;SDS011;9402;51.460;7.276;2023-05-10T06:21:02;56.53;;;31.50;;
18544;SDS011;9402;51.460;7.276;2023-05-10T06:23:03;60.40;;;30.90;;
18544;SDS011;9402;51.460;7.276;2023-05-10T06:25:05;57.90;;;30.77;;
18544;SDS011;9402;51.460;7.276;2023-05-10T06:27:09;59.87;;;33.07;;
18544;SDS011;9402;51.460;7.276;2023-05-10T06:29:10;56.17;;;32.13;;
18544;SDS011;9402;51.460;7.276;2023-05-10T06:31:12;69.70;;;32.03;;
18544;SDS011;9402;51.460;7.276;2023-05-10T06:33:13;62.30;;;32.17;;
18544;SDS011;9402;51.460;7.276;2023-05-10T06:35:16;52.03;;;31.53;;
18544;SDS011;9402;51.460;7.276;2023-05-10T06:37:17;65.13;;;31.13;;
18544;SDS011;9402;51.460;7.276;2023-05-10T06:39:19;67.90;;;33.50;;
18544;SDS011;9402;51.460;7.276;2023-05-10T06:41:21;61.37;;;31.07;;
18544;SDS011;9402;51.460;7.276;2023-05-10T06:43:24;89.43;;;30.80;;
18544;SDS011;9402;51.460;7.276;2023-05-10T06:45:26;55.33;;;30.70;;
18544;SDS011;9402;51.460;7.276;2023-05-10T06:47:27;55.00;;;30.17;;
18544;SDS011;9402;51.460;7.276;2023-05-10T06:49:29;55.30;;;30.57;;
18544;SDS011;9402;51.460;7.276;2023-05-10T06:51:30;55.73;;;30.47;;
18544;SDS011;9402;51.460;7.276;2023-05-10T06:53:32;59.30;;;30.93;;
18544;SDS011;9402;51.460;7.276;2023-05-10T06:55:34;68.13;;;33.97;;
18544;SDS011;9402;51.460;7.276;2023-05-10T06:57:36;57.10;;;32.10;;
18544;SDS011;9402;51.460;7.276;2023-05-10T06:59:38;59.00;;;30.90;;
18544;SDS011;9402;51.460;7.276;2023-05-10T07:01:40;49.40;;;29.43;;
18544;SDS011;9402;51.460;7.276;2023-05-10T07:03:42;61.93;;;32.13;;
18544;SDS011;9402;51.460;7.276;2023-05-10T07:05:43;72.90;;;35.23;;
18544;SDS011;9402;51.460;7.276;2023-05-10T07:07:45;57.83;;;32.30;;
18544;SDS011;9402;51.460;7.276;2023-05-10T07:09:46;60.33;;;34.10;;
18544;SDS011;9402;51.460;7.276;2023-05-10T07:11:48;71.77;;;36.00;;
18544;SDS011;9402;51.460;7.276;2023-05-10T07:13:50;57.87;;;34.33;;
18544;SDS011;9402;51.460;7.276;2023-05-10T07:15:53;57.73;;;30.77;;
18544;SDS011;9402;51.460;7.276;2023-05-10T07:17:54;59.90;;;33.40;;
18544;SDS011;9402;51.460;7.276;2023-05-10T07:19:56;56.07;;;30.17;;
18544;SDS011;9402;51.460;7.276;2023-05-10T07:21:58;55.43;;;31.60;;
18544;SDS011;9402;51.460;7.276;2023-05-10T07:24:00;51.23;;;29.30;;
18544;SDS011;9402;51.460;7.276;2023-05-10T07:26:01;57.73;;;28.80;;
18544;SDS011;9402;51.460;7.276;2023-05-10T07:28:03;52.40;;;30.00;;
18544;SDS011;9402;51.460;7.276;2023-05-10T07:30:06;52.40;;;28.37;;
18544;SDS011;9402;51.460;7.276;2023-05-10T07:32:09;51.73;;;27.93;;
18544;SDS011;9402;51.460;7.276;2023-05-10T07:34:11;58.90;;;27.50;;
18544;SDS011;9402;51.460;7.276;2023-05-10T07:36:12;57.07;;;28.07;;
18544;SDS011;9402;51.460;7.276;2023-05-10T07:38:14;51.77;;;26.33;;
18544;SDS011;9402;51.460;7.276;2023-05-10T07:40:17;57.20;;;27.80;;
18544;SDS011;9402;51.460;7.276;2023-05-10T07:42:19;54.63;;;27.57;;
18544;SDS011;9402;51.460;7.276;2023-05-10T07:44:20;51.20;;;26.80;;
18544;SDS011;9402;51.460;7.276;2023-05-10T07:46:22;68.07;;;29.63;;
18544;SDS011;9402;51.460;7.276;2023-05-10T07:48:25;54.40;;;27.43;;
18544;SDS011;9402;51.460;7.276;2023-05-10T07:50:27;54.30;;;28.80;;
18544;SDS011;9402;51.460;7.276;2023-05-10T07:52:28;49.37;;;27.53;;
18544;SDS011;9402;51.460;7.276;2023-05-10T07:54:30;60.37;;;28.77;;
18544;SDS011;9402;51.460;7.276;2023-05-10T07:56:32;63.03;;;28.60;;
18544;SDS011;9402;51.460;7.276;2023-05-10T07:58:34;68.97;;;32.17;;
18544;SDS011;9402;51.460;7.276;2023-05-10T08:00:36;72.77;;;32.47;;
18544;SDS011;9402;51.460;7.276;2023-05-10T08:02:39;69.73;;;31.63;;
18544;SDS011;9402;51.460;7.276;2023-05-10T08:04:43;60.17;;;31.70;;
18544;SDS011;9402;51.460;7.276;2023-05-10T08:06:44;57.03;;;31.73;;
18544;SDS011;9402;51.460;7.276;2023-05-10T08:08:46;64.80;;;33.00;;
18544;SDS011;9402;51.460;7.276;2023-05-10T08:10:49;72.40;;;34.77;;
18544;SDS011;9402;51.460;7.276;2023-05-10T08:12:51;69.03;;;33.50;;
18544;SDS011;9402;51.460;7.276;2023-05-10T08:14:52;68.93;;;33.77;;
18544;SDS011;9402;51.460;7.276;2023-05-10T08:16:54;64.50;;;31.43;;
18544;SDS011;9402;51.460;7.276;2023-05-10T08:18:55;62.70;;;32.13;;
18544;SDS011;9402;51.460;7.276;2023-05-10T08:20:58;60.33;;;32.10;;
18544;SDS011;9402;51.460;7.276;2023-05-10T08:23:00;68.37;;;30.87;;
18544;SDS011;9402;51.460;7.276;2023-05-10T08:25:01;57.83;;;30.57;;
18544;SDS011;9402;51.460;7.276;2023-05-10T08:27:03;55.60;;;30.43;;
18544;SDS011;9402;51.460;7.276;2023-05-10T08:29:05;58.17;;;29.77;;
18544;SDS011;9402;51.460;7.276;2023-05-10T08:31:07;55.90;;;27.53;;
18544;SDS011;9402;51.460;7.276;2023-05-10T08:33:09;61.70;;;28.47;;
18544;SDS011;9402;51.460;7.276;2023-05-10T08:35:10;61.70;;;28.50;;
18544;SDS011;9402;51.460;7.276;2023-05-10T08:37:13;55.70;;;27.87;;
18544;SDS011;9402;51.460;7.276;2023-05-10T08:39:15;56.33;;;29.03;;
18544;SDS011;9402;51.460;7.276;2023-05-10T08:41:16;68.33;;;31.20;;
18544;SDS011;9402;51.460;7.276;2023-05-10T08:43:18;58.87;;;29.37;;
18544;SDS011;9402;51.460;7.276;2023-05-10T08:45:20;54.93;;;29.00;;
18544;SDS011;9402;51.460;7.276;2023-05-10T08:47:23;65.60;;;27.60;;
18544;SDS011;9402;51.460;7.276;2023-05-10T08:49:25;51.40;;;27.80;;
18544;SDS011;9402;51.460;7.276;2023-05-10T08:51:28;52.27;;;26.60;;
18544;SDS011;9402;51.460;7.276;2023-05-10T08:53:32;51.93;;;25.40;;
18544;SDS011;9402;51.460;7.276;2023-05-10T08:55:34;50.53;;;24.30;;
18544;SDS011;9402;51.460;7.276;2023-05-10T08:57:38;43.83;;;22.93;;
18544;SDS011;9402;51.460;7.276;2023-05-10T08:59:40;51.53;;;25.30;;
18544;SDS011;9402;51.460;7.276;2023-05-10T09:01:41;43.00;;;23.37;;
18544;SDS011;9402;51.460;7.276;2023-05-10T09:03:44;41.43;;;21.57;;
18544;SDS011;9402;51.460;7.276;2023-05-10T09:05:47;37.63;;;21.37;;
18544;SDS011;9402;51.460;7.276;2023-05-10T09:07:49;38.50;;;19.57;;
18544;SDS011;9402;51.460;7.276;2023-05-10T09:09:52;29.37;;;15.97;;
18544;SDS011;9402;51.460;7.276;2023-05-10T09:11:55;29.83;;;16.43;;
18544;SDS011;9402;51.460;7.276;2023-05-10T09:13:56;31.23;;;15.40;;
18544;SDS011;9402;51.460;7.276;2023-05-10T09:15:58;28.30;;;14.93;;
18544;SDS011;9402;51.460;7.276;2023-05-10T09:18:00;25.43;;;12.97;;
18544;SDS011;9402;51.460;7.276;2023-05-10T09:20:03;21.30;;;12.67;;
18544;SDS011;9402;51.460;7.276;2023-05-10T09:22:05;22.27;;;12.90;;
18544;SDS011;9402;51.460;7.276;2023-05-10T09:24:07;22.30;;;12.87;;
18544;SDS011;9402;51.460;7.276;2023-05-10T09:26:10;19.67;;;11.73;;
18544;SDS011;9402;51.460;7.276;2023-05-10T09:28:12;18.27;;;10.80;;
18544;SDS011;9402;51.460;7.276;2023-05-10T09:30:17;20.90;;;12.10;;
18544;SDS011;9402;51.460;7.276;2023-05-10T09:32:27;25.73;;;14.47;;
18544;SDS011;9402;51.460;7.276;2023-05-10T09:34:37;25.30;;;12.37;;
18544;SDS011;9402;51.460;7.276;2023-05-10T09:36:49;25.33;;;12.33;;
18544;SDS011;9402;51.460;7.276;2023-05-10T09:38:52;22.70;;;11.70;;
18544;SDS011;9402;51.460;7.276;2023-05-10T09:40:53;19.93;;;11.80;;
18544;SDS011;9402;51.460;7.276;2023-05-10T09:42:57;22.00;;;12.10;;
18544;SDS011;9402;51.460;7.276;2023-05-10T09:45:00;20.80;;;12.27;;
18544;SDS011;9402;51.460;7.276;2023-05-10T09:47:03;19.67;;;10.30;;
18544;SDS011;9402;51.460;7.276;2023-05-10T09:49:04;17.13;;;10.70;;
18544;SDS011;9402;51.460;7.276;2023-05-10T09:51:06;21.73;;;11.00;;
18544;SDS011;9402;51.460;7.276;2023-05-10T09:53:08;25.33;;;10.80;;
18544;SDS011;9402;51.460;7.276;2023-05-10T09:55:09;20.80;;;11.50;;
18544;SDS011;9402;51.460;7.276;2023-05-10T09:57:14;25.80;;;13.03;;
18544;SDS011;9402;51.460;7.276;2023-05-10T09:59:21;25.57;;;11.20;;
18544;SDS011;9402;51.460;7.276;2023-05-10T10:01:26;22.70;;;12.23;;
18544;SDS011;9402;51.460;7.276;2023-05-10T10:03:27;27.33;;;12.70;;
18544;SDS011;9402;51.460;7.276;2023-05-10T10:05:30;22.50;;;11.87;;
18544;SDS011;9402;51.460;7.276;2023-05-10T10:07:32;20.47;;;11.27;;
18544;SDS011;9402;51.460;7.276;2023-05-10T10:09:34;27.40;;;13.10;;
18544;SDS011;9402;51.460;7.276;2023-05-10T10:11:37;32.57;;;13.10;;
18544;SDS011;9402;51.460;7.276;2023-05-10T10:13:39;31.80;;;14.63;;
18544;SDS011;9402;51.460;7.276;2023-05-10T10:15:42;26.43;;;14.60;;
18544;SDS011;9402;51.460;7.276;2023-05-10T10:17:45;27.30;;;15.00;;
18544;SDS011;9402;51.460;7.276;2023-05-10T10:19:48;24.67;;;13.30;;
18544;SDS011;9402;51.460;7.276;2023-05-10T10:21:49;26.63;;;13.00;;
18544;SDS011;9402;51.460;7.276;2023-05-10T10:23:51;25.07;;;13.03;;
18544;SDS011;9402;51.460;7.276;2023-05-10T10:25:53;29.37;;;14.47;;
18544;SDS011;9402;51.460;7.276;2023-05-10T10:28:02;25.50;;;14.50;;
18544;SDS011;9402;51.460;7.276;2023-05-10T10:30:13;34.33;;;17.10;;
18544;SDS011;9402;51.460;7.276;2023-05-10T10:32:24;35.90;;;18.97;;
18544;SDS011;9402;51.460;7.276;2023-05-10T10:34:29;44.07;;;19.13;;
18544;SDS011;9402;51.460;7.276;2023-05-10T10:36:31;34.67;;;19.07;;
18544;SDS011;9402;51.460;7.276;2023-05-10T10:38:37;39.60;;;20.40;;
18544;SDS011;9402;51.460;7.276;2023-05-10T10:41:02;39.90;;;20.43;;
18544;SDS011;9402;51.460;7.276;2023-05-10T10:43:22;34.20;;;20.17;;
18544;SDS011;9402;51.460;7.276;2023-05-10T10:45:25;40.53;;;18.50;;
18544;SDS011;9402;51.460;7.276;2023-05-10T10:47:29;38.57;;;18.67;;
18544;SDS011;9402;51.460;7.276;2023-05-10T10:49:33;36.03;;;17.60;;
18544;SDS011;9402;51.460;7.276;2023-05-10T10:51:39;27.10;;;14.27;;
18544;SDS011;9402;51.460;7.276;2023-05-10T10:53:40;27.10;;;15.93;;
18544;SDS011;9402;51.460;7.276;2023-05-10T10:55:45;27.90;;;15.70;;
18544;SDS011;9402;51.460;7.276;2023-05-10T10:57:48;32.13;;;14.70;;
18544;SDS011;9402;51.460;7.276;2023-05-10T10:59:51;25.93;;;14.37;;
18544;SDS011;9402;51.460;7.276;2023-05-10T11:01:55;26.87;;;14.77;;
18544;SDS011;9402;51.460;7.276;2023-05-10T11:06:28;25.67;;;13.93;;
18544;SDS011;9402;51.460;7.276;2023-05-10T11:08:30;27.60;;;14.67;;
18544;SDS011;9402;51.460;7.276;2023-05-10T11:10:32;25.67;;;14.73;;
18544;SDS011;9402;51.460;7.276;2023-05-10T11:12:34;26.97;;;14.40;;
18544;SDS011;9402;51.460;7.276;2023-05-10T11:14:52;21.80;;;12.60;;
18544;SDS011;9402;51.460;7.276;2023-05-10T11:16:58;27.90;;;13.80;;
18544;SDS011;9402;51.460;7.276;2023-05-10T11:19:00;23.70;;;14.90;;
18544;SDS011;9402;51.460;7.276;2023-05-10T11:21:04;28.63;;;14.77;;
18544;SDS011;9402;51.460;7.276;2023-05-10T11:23:13;29.40;;;16.77;;
18544;SDS011;9402;51.460;7.276;2023-05-10T11:25:16;24.70;;;16.10;;
18544;SDS011;9402;51.460;7.276;2023-05-10T11:27:17;22.57;;;16.30;;
18544;SDS011;9402;51.460;7.276;2023-05-10T11:29:19;29.27;;;16.67;;
18544;SDS011;9402;51.460;7.276;2023-05-10T11:31:21;23.57;;;15.63;;
18544;SDS011;9402;51.460;7.276;2023-05-10T11:33:23;31.00;;;17.07;;
18544;SDS011;9402;51.460;7.276;2023-05-10T11:35:27;28.60;;;14.67;;
18544;SDS011;9402;51.460;7.276;2023-05-10T11:37:30;31.50;;;16.30;;
18544;SDS011;9402;51.460;7.276;2023-05-10T11:39:34;32.90;;;17.63;;
18544;SDS011;9402;51.460;7.276;2023-05-10T11:41:35;25.43;;;14.30;;
18544;SDS011;9402;51.460;7.276;2023-05-10T11:43:37;25.77;;;13.93;;
18544;SDS011;9402;51.460;7.276;2023-05-10T11:45:40;31.10;;;12.80;;
18544;SDS011;9402;51.460;7.276;2023-05-10T11:47:42;22.97;;;11.40;;
18544;SDS011;9402;51.460;7.276;2023-05-10T11:49:44;24.20;;;13.90;;
18544;SDS011;9402;51.460;7.276;2023-05-10T11:51:46;23.87;;;13.00;;
18544;SDS011;9402;51.460;7.276;2023-05-10T11:53:49;22.63;;;12.63;;
18544;SDS011;9402;51.460;7.276;2023-05-10T11:55:51;23.87;;;12.20;;
18544;SDS011;9402;51.460;7.276;2023-05-10T11:57:53;25.50;;;11.00;;
18544;SDS011;9402;51.460;7.276;2023-05-10T11:59:55;21.17;;;12.03;;
18544;SDS011;9402;51.460;7.276;2023-05-10T12:01:57;15.00;;;9.73;;
18544;SDS011;9402;51.460;7.276;2023-05-10T12:03:59;20.60;;;11.03;;
18544;SDS011;9402;51.460;7.276;2023-05-10T12:06:01;19.80;;;12.10;;
18544;SDS011;9402;51.460;7.276;2023-05-10T12:08:12;29.10;;;11.10;;
18544;SDS011;9402;51.460;7.276;2023-05-10T12:10:17;21.33;;;10.83;;
18544;SDS011;9402;51.460;7.276;2023-05-10T12:12:26;19.30;;;11.00;;
18544;SDS011;9402;51.460;7.276;2023-05-10T12:14:28;16.93;;;10.57;;
18544;SDS011;9402;51.460;7.276;2023-05-10T12:16:33;20.53;;;11.03;;
18544;SDS011;9402;51.460;7.276;2023-05-10T12:18:34;19.17;;;10.17;;
18544;SDS011;9402;51.460;7.276;2023-05-10T12:20:41;21.70;;;11.10;;